Time;durP1;ratioP1;P1;durP2;ratioP2;P2;SDS_P1;SDS_P2;PMS_P1;PMS_P2;Temp;Humidity;BMP_temperature;BMP_pressure;BME280_temperature;BME280_humidity;BME280_pressure;Samples;Min_cycle;Max_cycle;Signal;HPM_P1;HPM_P2
2022/10/13 00:01:21;;;;;;;8.40;3.97;;;;;;;-146.19;100.00;65364.44;10374210;28;20513;-62
2022/10/13 00:06:40;;;;;;;9.32;3.95;;;;;;;-146.19;100.00;65364.44;10385428;28;20042;-62
2022/10/13 00:11:59;;;;;;;7.82;3.85;;;;;;;-146.19;100.00;65364.44;10386827;28;20378;-62
2022/10/13 00:17:19;;;;;;;6.57;3.50;;;;;;;-146.19;100.00;65364.44;10385298;28;20042;-62
2022/10/13 00:22:38;;;;;;;5.90;3.40;;;;;;;-146.19;100.00;65364.44;10385085;28;20058;-62
2022/10/13 00:27:57;;;;;;;8.00;3.90;;;;;;;-146.19;100.00;65364.44;10391056;28;20052;-62
2022/10/13 00:33:24;;;;;;;5.82;3.35;;;;;;;-146.19;100.00;65364.44;10381691;28;20554;-61
2022/10/13 00:38:44;;;;;;;7.25;3.75;;;;;;;-146.19;100.00;65364.44;10384622;28;20405;-61
2022/10/13 00:44:06;;;;;;;4.97;2.97;;;;;;;-146.19;100.00;65364.44;10387022;28;20137;-62
2022/10/13 00:49:25;;;;;;;6.90;3.63;;;;;;;-146.19;100.00;65364.44;10385329;28;20094;-62
2022/10/13 00:54:46;;;;;;;5.32;3.30;;;;;;;-146.19;100.00;65364.44;10384507;28;20056;-62
2022/10/13 01:00:06;;;;;;;5.43;3.30;;;;;;;-146.19;100.00;65364.44;10356786;28;20425;-62
2022/10/13 01:05:26;;;;;;;6.53;3.53;;;;;;;-146.19;100.00;65364.44;10371472;28;20077;-62
2022/10/13 01:11:11;;;;;;;5.55;3.45;;;;;;;-146.19;100.00;65364.44;10396091;28;20046;-62
2022/10/13 01:17:12;;;;;;;6.13;3.58;;;;;;;-146.19;100.00;65364.44;10376753;28;20120;-61
2022/10/13 01:22:53;;;;;;;4.80;3.28;;;;;;;-146.19;100.00;65364.44;10352824;28;20061;-61
2022/10/13 01:28:32;;;;;;;5.15;3.13;;;;;;;-146.19;100.00;65364.44;10398787;28;20038;-62
2022/10/13 01:33:56;;;;;;;5.05;3.05;;;;;;;-146.19;100.00;65364.44;10387461;28;20049;-62
2022/10/13 01:39:41;;;;;;;4.93;3.13;;;;;;;-146.19;100.00;65364.44;10391257;28;20088;-62
2022/10/13 01:45:03;;;;;;;5.60;3.38;;;;;;;-146.19;100.00;65364.44;10365170;28;20037;-62
2022/10/13 01:50:22;;;;;;;4.78;3.15;;;;;;;-146.19;100.00;65364.44;10390101;28;20042;-62
2022/10/13 01:56:07;;;;;;;5.63;3.10;;;;;;;-146.19;100.00;65364.44;10397631;28;20041;-61
2022/10/13 02:01:39;;;;;;;4.72;3.28;;;;;;;-146.19;100.00;65364.44;10372948;28;20053;-61
2022/10/13 02:07:17;;;;;;;5.68;3.30;;;;;;;-146.19;100.00;65364.44;10389738;28;20056;-61
2022/10/13 02:12:52;;;;;;;4.38;3.15;;;;;;;-146.19;100.00;65364.44;10357101;28;20049;-62
2022/10/13 02:18:14;;;;;;;5.50;2.92;;;;;;;-146.19;100.00;65364.44;10361062;28;20127;-61
2022/10/13 02:23:33;;;;;;;4.05;2.72;;;;;;;-146.19;100.00;65364.44;10391691;28;20171;-62
2022/10/13 02:28:53;;;;;;;4.90;3.00;;;;;;;-146.19;100.00;65364.44;10384176;28;20096;-62
2022/10/13 02:34:14;;;;;;;4.10;3.40;;;;;;;-146.19;100.00;65364.44;10388528;28;20493;-61
2022/10/13 02:39:33;;;;;;;5.70;3.05;;;;;;;-146.19;100.00;65364.44;10394192;28;20409;-62
2022/10/13 02:44:52;;;;;;;3.60;3.10;;;;;;;-146.19;100.00;65364.44;10375944;28;20057;-62
2022/10/13 02:50:11;;;;;;;3.95;2.65;;;;;;;-146.19;100.00;65364.44;10387976;28;20041;-62
2022/10/13 02:55:31;;;;;;;4.05;2.70;;;;;;;-146.19;100.00;65364.44;10399648;28;20514;-62
2022/10/13 03:00:50;;;;;;;4.60;2.78;;;;;;;-146.19;100.00;65364.44;10366141;28;20536;-62
2022/10/13 03:06:09;;;;;;;4.15;2.95;;;;;;;-146.19;100.00;65364.44;10387197;28;20503;-59
2022/10/13 03:11:29;;;;;;;3.63;2.63;;;;;;;-146.19;100.00;65364.44;10390438;28;20129;-61
2022/10/13 03:16:49;;;;;;;4.78;3.00;;;;;;;-146.19;100.00;65364.44;10386931;28;20045;-61
2022/10/13 03:22:13;;;;;;;4.00;2.72;;;;;;;-146.19;100.00;65364.44;10383477;28;20406;-61
2022/10/13 03:27:32;;;;;;;3.65;2.90;;;;;;;-146.19;100.00;65364.44;10393893;28;20054;-60
2022/10/13 03:32:52;;;;;;;4.72;3.20;;;;;;;-146.19;100.00;65364.44;10385382;28;20053;-62
2022/10/13 03:38:11;;;;;;;3.92;2.83;;;;;;;-146.19;100.00;65364.44;10386103;28;20472;-62
2022/10/13 03:43:31;;;;;;;5.03;2.83;;;;;;;-146.19;100.00;65364.44;10375199;28;20046;-62
2022/10/13 03:48:50;;;;;;;3.60;2.78;;;;;;;-146.19;100.00;65364.44;10385881;28;20040;-62
2022/10/13 03:54:11;;;;;;;3.00;2.70;;;;;;;-146.19;100.00;65364.44;10385601;28;20042;-61
2022/10/13 03:59:30;;;;;;;4.97;2.50;;;;;;;-146.19;100.00;65364.44;10363869;28;20054;-62
2022/10/13 04:04:50;;;;;;;3.15;2.63;;;;;;;-146.19;100.00;65364.44;10385487;28;20030;-62
2022/10/13 04:10:09;;;;;;;3.58;2.83;;;;;;;-146.19;100.00;65364.44;10387696;28;20042;-62
2022/10/13 04:15:29;;;;;;;3.83;2.90;;;;;;;-146.19;100.00;65364.44;10379699;28;20513;-62
2022/10/13 04:20:48;;;;;;;3.58;2.80;;;;;;;-146.19;100.00;65364.44;10375429;28;20453;-61
2022/10/13 04:26:14;;;;;;;3.13;2.20;;;;;;;-146.19;100.00;65364.44;10392212;28;20049;-59
2022/10/13 04:31:34;;;;;;;3.88;2.72;;;;;;;-146.19;100.00;65364.44;10372028;28;20406;-62
2022/10/13 04:36:53;;;;;;;3.13;2.55;;;;;;;-146.19;100.00;65364.44;10369606;28;20117;-62
2022/10/13 04:42:13;;;;;;;4.35;2.92;;;;;;;-146.19;100.00;65364.44;10353058;28;20093;-63
2022/10/13 04:47:33;;;;;;;3.95;2.58;;;;;;;-146.19;100.00;65364.44;10354065;28;20072;-63
2022/10/13 04:52:53;;;;;;;4.22;2.97;;;;;;;-146.19;100.00;65364.44;10360579;28;20429;-63
2022/10/13 04:58:12;;;;;;;6.43;3.03;;;;;;;-146.19;100.00;65364.44;10388368;28;20457;-61
2022/10/13 05:03:32;;;;;;;5.03;2.53;;;;;;;-146.19;100.00;65364.44;10357845;28;20054;-61
2022/10/13 05:08:52;;;;;;;6.65;4.32;;;;;;;-146.19;100.00;65364.44;10388672;28;20053;-59
2022/10/13 05:14:11;;;;;;;7.38;3.45;;;;;;;-146.19;100.00;65364.44;10385174;28;20045;-62
2022/10/13 05:19:31;;;;;;;8.27;3.60;;;;;;;-146.19;100.00;65364.44;10391133;28;20511;-61
2022/10/13 05:24:50;;;;;;;9.00;4.93;;;;;;;-146.19;100.00;65364.44;10386501;28;20041;-60
2022/10/13 05:30:10;;;;;;;8.85;4.65;;;;;;;-146.19;100.00;65364.44;10387942;28;20038;-62
2022/10/13 05:35:30;;;;;;;9.48;4.75;;;;;;;-146.19;100.00;65364.44;10386719;28;20038;-61
2022/10/13 05:40:49;;;;;;;10.63;4.95;;;;;;;-146.19;100.00;65364.44;10399066;28;20050;-61
2022/10/13 05:46:09;;;;;;;7.70;4.28;;;;;;;-146.19;100.00;65364.44;10389821;28;20045;-62
2022/10/13 05:51:29;;;;;;;9.27;4.70;;;;;;;-146.19;100.00;65364.44;10390190;28;20129;-61
2022/10/13 05:57:12;;;;;;;8.93;4.88;;;;;;;-146.19;100.00;65364.44;10391556;28;20050;-61
2022/10/13 06:03:10;;;;;;;8.40;4.88;;;;;;;-146.19;100.00;65364.44;10386974;28;20049;-61
2022/10/13 06:08:29;;;;;;;8.60;4.53;;;;;;;-146.19;100.00;65364.44;10306554;28;20115;-61
2022/10/13 06:13:49;;;;;;;10.20;4.63;;;;;;;-146.19;100.00;65364.44;10370648;28;20417;-62
2022/10/13 06:19:08;;;;;;;7.90;4.40;;;;;;;-146.19;100.00;65364.44;10389284;28;20059;-62
2022/10/13 06:24:27;;;;;;;9.27;4.53;;;;;;;-146.19;100.00;65364.44;10390763;28;20053;-61
2022/10/13 06:29:47;;;;;;;8.93;4.82;;;;;;;-146.19;100.00;65364.44;10388821;28;20493;-61
2022/10/13 06:35:06;;;;;;;7.85;4.28;;;;;;;-146.19;100.00;65364.44;10378210;28;20481;-62
2022/10/13 06:40:26;;;;;;;6.50;4.20;;;;;;;-146.19;100.00;65364.44;10387276;28;20050;-60
2022/10/13 06:45:45;;;;;;;7.97;4.03;;;;;;;-146.19;100.00;65364.44;10388176;28;20049;-62
2022/10/13 06:51:06;;;;;;;8.55;4.50;;;;;;;-146.19;100.00;65364.44;10380544;28;20045;-61
2022/10/13 06:56:28;;;;;;;12.38;4.93;;;;;;;-146.19;100.00;65364.44;10390019;28;20038;-58
2022/10/13 07:01:50;;;;;;;7.70;4.20;;;;;;;-146.19;100.00;65364.44;10370952;28;20112;-62
2022/10/13 07:07:10;;;;;;;7.70;4.47;;;;;;;-146.19;100.00;65364.44;10383704;28;20050;-61
2022/10/13 07:12:30;;;;;;;6.35;3.90;;;;;;;-146.19;100.00;65364.44;10387118;28;20046;-61
2022/10/13 07:17:52;;;;;;;5.90;3.78;;;;;;;-146.19;100.00;65364.44;10386761;28;20046;-62
2022/10/13 07:23:13;;;;;;;6.03;4.32;;;;;;;-146.19;100.00;65364.44;10394219;28;20053;-62
2022/10/13 07:28:32;;;;;;;5.28;3.67;;;;;;;-146.19;100.00;65364.44;10386576;28;20049;-61
2022/10/13 07:33:51;;;;;;;6.88;4.10;;;;;;;-146.19;100.00;65364.44;10386338;28;20041;-61
2022/10/13 07:39:10;;;;;;;6.85;3.88;;;;;;;-146.19;100.00;65364.44;10376353;28;20409;-61
2022/10/13 07:44:30;;;;;;;5.20;3.65;;;;;;;-146.19;100.00;65364.44;10385975;28;20042;-62
2022/10/13 07:49:50;;;;;;;5.88;3.78;;;;;;;-146.19;100.00;65364.44;10377001;28;20042;-62
2022/10/13 07:55:09;;;;;;;5.55;3.88;;;;;;;-146.19;100.00;65364.44;10388339;28;20107;-62
2022/10/13 08:00:29;;;;;;;5.55;3.55;;;;;;;-146.19;100.00;65364.44;10371310;28;20058;-62
2022/10/13 08:05:48;;;;;;;5.60;3.78;;;;;;;-146.19;100.00;65364.44;10373547;28;20049;-61
2022/10/13 08:11:11;;;;;;;5.07;3.70;;;;;;;-146.19;100.00;65364.44;10378687;28;20038;-61
2022/10/13 08:16:31;;;;;;;6.22;3.53;;;;;;;-146.19;100.00;65364.44;10385662;28;20045;-61
2022/10/13 08:21:51;;;;;;;5.13;3.60;;;;;;;-146.19;100.00;65364.44;10401566;28;20048;-61
2022/10/13 08:27:18;;;;;;;5.82;3.72;;;;;;;-146.19;100.00;65364.44;10380313;28;20057;-61
2022/10/13 08:32:38;;;;;;;6.55;3.63;;;;;;;-146.19;100.00;65364.44;10393164;28;20441;-62
2022/10/13 08:37:58;;;;;;;4.70;3.20;;;;;;;-146.19;100.00;65364.44;10406634;28;20045;-58
2022/10/13 08:43:21;;;;;;;5.30;3.63;;;;;;;-146.19;100.00;65364.44;10393231;28;20505;-61
2022/10/13 08:48:41;;;;;;;4.60;3.22;;;;;;;-146.19;100.00;65364.44;10379823;28;20116;-61
2022/10/13 08:54:00;;;;;;;4.55;3.08;;;;;;;-146.19;100.00;65364.44;10395299;28;20448;-61
2022/10/13 08:59:20;;;;;;;5.22;3.38;;;;;;;-146.19;100.00;65364.44;10386548;28;20108;-62
2022/10/13 09:04:42;;;;;;;5.10;3.28;;;;;;;-146.19;100.00;65364.44;10392410;28;20038;-60
2022/10/13 09:10:03;;;;;;;4.80;3.38;;;;;;;-146.19;100.00;65364.44;10392279;28;20045;-61
2022/10/13 09:15:22;;;;;;;4.97;3.03;;;;;;;-146.19;100.00;65364.44;10380222;28;20042;-62
2022/10/13 09:20:41;;;;;;;4.32;3.05;;;;;;;-146.19;100.00;65364.44;10394160;28;20549;-61
2022/10/13 09:26:06;;;;;;;3.83;3.22;;;;;;;-146.19;100.00;65364.44;10378130;28;20464;-61
2022/10/13 09:31:29;;;;;;;3.90;2.83;;;;;;;-146.19;100.00;65364.44;10375208;28;20556;-59
2022/10/13 09:36:59;;;;;;;3.83;3.10;;;;;;;-146.19;100.00;65364.44;10403853;28;20045;-61
2022/10/13 09:42:26;;;;;;;4.90;3.30;;;;;;;-146.19;100.00;65364.44;10385232;28;20401;-61
2022/10/13 09:47:58;;;;;;;4.22;2.97;;;;;;;-146.19;100.00;65364.44;10376112;28;20049;-61
2022/10/13 09:53:38;;;;;;;4.38;3.00;;;;;;;-146.19;100.00;65364.44;10378372;28;20046;-61
2022/10/13 09:59:33;;;;;;;4.50;3.10;;;;;;;-146.19;100.00;65364.44;10345116;28;20156;-58
2022/10/13 10:04:53;;;;;;;3.60;2.70;;;;;;;-146.19;100.00;65364.44;10370901;28;20046;-61
2022/10/13 10:10:30;;;;;;;4.80;3.05;;;;;;;-146.19;100.00;65364.44;10363744;28;20038;-62
2022/10/13 10:15:55;;;;;;;3.75;2.97;;;;;;;-146.19;100.00;65364.44;10388133;28;20046;-61
2022/10/13 10:21:21;;;;;;;4.13;3.10;;;;;;;-146.19;100.00;65364.44;10394855;28;20061;-62
2022/10/13 10:26:46;;;;;;;3.92;2.90;;;;;;;-146.19;100.00;65364.44;10389409;28;20409;-62
2022/10/13 10:32:15;;;;;;;3.85;2.85;;;;;;;-146.19;100.00;65364.44;10388610;28;20099;-61
2022/10/13 10:37:44;;;;;;;3.70;2.85;;;;;;;-146.19;100.00;65364.44;10390323;28;20042;-61
2022/10/13 10:43:25;;;;;;;4.22;2.88;;;;;;;-146.19;100.00;65364.44;10378952;28;20046;-61
2022/10/13 10:48:46;;;;;;;3.40;2.67;;;;;;;-146.19;100.00;65364.44;10393475;28;20055;-62
2022/10/13 10:54:18;;;;;;;3.28;2.40;;;;;;;-146.19;100.00;65364.44;10383761;28;20069;-61
2022/10/13 10:59:53;;;;;;;4.05;2.72;;;;;;;-146.19;100.00;65364.44;10359536;28;20140;-61
2022/10/13 11:05:13;;;;;;;5.78;4.45;;;;;;;-146.19;100.00;65364.44;10364647;28;20123;-61
2022/10/13 11:10:32;;;;;;;3.92;2.92;;;;;;;-146.19;100.00;65364.44;10387309;28;20409;-61
2022/10/13 11:15:52;;;;;;;4.50;2.88;;;;;;;-146.19;100.00;65364.44;10386098;28;20088;-61
2022/10/13 11:21:11;;;;;;;4.63;3.22;;;;;;;-146.19;100.00;65364.44;10380168;28;20109;-61
2022/10/13 11:26:41;;;;;;;3.70;2.97;;;;;;;-146.19;100.00;65364.44;10386854;28;20041;-60
2022/10/13 11:32:03;;;;;;;3.55;3.00;;;;;;;-146.19;100.00;65364.44;10371949;28;20053;-60
2022/10/13 11:37:28;;;;;;;3.83;2.88;;;;;;;-146.19;100.00;65364.44;10390847;28;20397;-60
2022/10/13 11:43:09;;;;;;;3.90;3.10;;;;;;;-146.19;100.00;65364.44;10371729;28;20050;-61
2022/10/13 11:48:54;;;;;;;4.05;2.90;;;;;;;-146.19;100.00;65364.44;10384346;28;20046;-61
2022/10/13 11:54:23;;;;;;;3.17;2.63;;;;;;;-146.19;100.00;65364.44;10385044;28;20038;-61
2022/10/13 11:59:46;;;;;;;3.40;2.88;;;;;;;-146.19;100.00;65364.44;10373272;28;20112;-61
2022/10/13 12:05:27;;;;;;;4.68;3.17;;;;;;;-146.19;100.00;65364.44;10389879;28;20057;-61
2022/10/13 12:10:53;;;;;;;3.15;2.72;;;;;;;-146.19;100.00;65364.44;10373098;28;20053;-60
2022/10/13 12:16:13;;;;;;;3.53;2.80;;;;;;;-146.19;100.00;65364.44;10359751;28;20045;-61
2022/10/13 12:21:33;;;;;;;3.97;2.90;;;;;;;-146.19;100.00;65364.44;10381280;28;20048;-61
2022/10/13 12:26:53;;;;;;;2.97;2.67;;;;;;;-146.19;100.00;65364.44;10385378;28;20042;-61
2022/10/13 12:32:25;;;;;;;2.78;2.58;;;;;;;-146.19;100.00;65364.44;10386329;28;20075;-61
2022/10/13 12:37:45;;;;;;;4.20;2.70;;;;;;;-146.19;100.00;65364.44;10372045;28;20044;-61
2022/10/13 12:43:05;;;;;;;4.78;2.83;;;;;;;-146.19;100.00;65364.44;10385090;28;20049;-60
2022/10/13 12:48:35;;;;;;;3.28;2.75;;;;;;;-146.19;100.00;65364.44;10382396;28;20115;-61
2022/10/13 12:53:55;;;;;;;3.15;2.53;;;;;;;-146.19;100.00;65364.44;10384194;28;20046;-61
2022/10/13 12:59:17;;;;;;;4.05;2.65;;;;;;;-146.19;100.00;65364.44;10378756;28;20042;-61
2022/10/13 13:04:42;;;;;;;3.47;2.67;;;;;;;-146.19;100.00;65364.44;10389626;28;20042;-61
2022/10/13 13:10:08;;;;;;;3.38;2.80;;;;;;;-146.19;100.00;65364.44;10379158;28;20405;-59
2022/10/13 13:15:32;;;;;;;3.00;2.70;;;;;;;-146.19;100.00;65364.44;10392036;28;20041;-61
2022/10/13 13:20:55;;;;;;;4.32;2.65;;;;;;;-146.19;100.00;65364.44;10399327;28;20046;-61
2022/10/13 13:26:19;;;;;;;2.80;2.50;;;;;;;-146.19;100.00;65364.44;10391689;28;20061;-61
2022/10/13 13:31:38;;;;;;;3.13;2.45;;;;;;;-146.19;100.00;65364.44;10390892;28;20050;-61
2022/10/13 13:37:00;;;;;;;2.78;2.42;;;;;;;-146.19;100.00;65364.44;10395212;28;20034;-61
2022/10/13 13:42:19;;;;;;;3.35;2.65;;;;;;;-146.19;100.00;65364.44;10383657;28;20050;-61
2022/10/13 13:47:40;;;;;;;2.65;2.45;;;;;;;-146.19;100.00;65364.44;10381097;28;20393;-60
2022/10/13 13:53:00;;;;;;;3.20;2.67;;;;;;;-146.19;100.00;65364.44;10390235;28;20041;-61
2022/10/13 13:58:20;;;;;;;2.90;2.60;;;;;;;-146.19;100.00;65364.44;10387150;28;20061;-61
2022/10/13 14:03:40;;;;;;;2.78;2.50;;;;;;;-146.19;100.00;65364.44;10374160;28;20054;-60
2022/10/13 14:09:03;;;;;;;2.78;2.45;;;;;;;-146.19;100.00;65364.44;10389620;28;20045;-61
2022/10/13 14:14:22;;;;;;;2.65;2.22;;;;;;;-146.19;100.00;65364.44;10389131;28;20049;-61
2022/10/13 14:19:42;;;;;;;2.65;2.40;;;;;;;-146.19;100.00;65364.44;10396815;28;20054;-61
2022/10/13 14:25:01;;;;;;;2.75;2.47;;;;;;;-146.19;100.00;65364.44;10376601;28;20045;-61
2022/10/13 14:30:21;;;;;;;3.13;2.30;;;;;;;-146.19;100.00;65364.44;10388727;28;20077;-60
2022/10/13 14:35:40;;;;;;;2.65;2.28;;;;;;;-146.19;100.00;65364.44;10383354;28;20054;-60
2022/10/13 14:41:04;;;;;;;2.63;2.30;;;;;;;-146.19;100.00;65364.44;10380776;28;20052;-61
2022/10/13 14:46:24;;;;;;;2.53;2.33;;;;;;;-146.19;100.00;65364.44;10379611;28;20047;-61
2022/10/13 14:51:43;;;;;;;3.10;2.45;;;;;;;-146.19;100.00;65364.44;10377432;28;20046;-62
2022/10/13 14:57:04;;;;;;;2.60;2.20;;;;;;;-146.19;100.00;65364.44;10374943;28;20042;-61
2022/10/13 15:02:24;;;;;;;2.20;2.00;;;;;;;-146.19;100.00;65364.44;10382818;28;20048;-61
2022/10/13 15:07:45;;;;;;;2.63;2.25;;;;;;;-146.19;100.00;65364.44;10387462;28;20489;-61
2022/10/13 15:13:04;;;;;;;2.38;2.17;;;;;;;-146.19;100.00;65364.44;10386684;28;20500;-61
2022/10/13 15:18:23;;;;;;;2.53;2.25;;;;;;;-146.19;100.00;65364.44;10392035;28;20044;-61
2022/10/13 15:23:43;;;;;;;2.42;2.22;;;;;;;-146.19;100.00;65364.44;10386312;28;20538;-61
2022/10/13 15:29:03;;;;;;;2.35;2.15;;;;;;;-146.19;100.00;65364.44;10386199;28;20054;-61
2022/10/13 15:34:22;;;;;;;2.30;2.10;;;;;;;-146.19;100.00;65364.44;10384002;28;20503;-61
2022/10/13 15:39:42;;;;;;;3.20;2.40;;;;;;;-146.19;100.00;65364.44;10379171;28;20084;-62
2022/10/13 15:45:02;;;;;;;3.40;2.35;;;;;;;-146.19;100.00;65364.44;10388039;28;20045;-62
2022/10/13 15:50:22;;;;;;;3.10;2.80;;;;;;;-146.19;100.00;65364.44;10392188;28;20382;-62
2022/10/13 15:55:42;;;;;;;4.45;2.78;;;;;;;-146.19;100.00;65364.44;10383148;28;20048;-59
2022/10/13 16:01:06;;;;;;;3.38;2.63;;;;;;;-146.19;100.00;65364.44;10360487;28;20062;-61
2022/10/13 16:06:25;;;;;;;2.97;2.67;;;;;;;-146.19;100.00;65364.44;10385213;28;20095;-61
2022/10/13 16:11:45;;;;;;;4.10;2.30;;;;;;;-146.19;100.00;65364.44;10373149;28;20046;-61
2022/10/13 16:17:04;;;;;;;3.10;2.50;;;;;;;-146.19;100.00;65364.44;10374817;28;20042;-62
2022/10/13 16:22:24;;;;;;;6.40;2.63;;;;;;;-146.19;100.00;65364.44;10377534;28;20041;-61
2022/10/13 16:27:44;;;;;;;5.68;3.05;;;;;;;-146.19;100.00;65364.44;10369796;28;20052;-60
2022/10/13 16:33:03;;;;;;;4.05;3.00;;;;;;;-146.19;100.00;65364.44;10361521;28;20069;-61
2022/10/13 16:38:23;;;;;;;3.47;2.70;;;;;;;-146.19;100.00;65364.44;10385493;28;20042;-62
2022/10/13 16:43:44;;;;;;;5.38;2.65;;;;;;;-146.19;100.00;65364.44;10395430;28;20052;-61
2022/10/13 16:49:03;;;;;;;3.08;2.78;;;;;;;-146.19;100.00;65364.44;10379647;28;20042;-62
2022/10/13 16:54:23;;;;;;;3.67;2.83;;;;;;;-146.19;100.00;65364.44;10392365;28;20046;-61
2022/10/13 16:59:42;;;;;;;6.07;2.83;;;;;;;-146.19;100.00;65364.44;10377085;28;20058;-61
2022/10/13 17:05:03;;;;;;;3.67;2.40;;;;;;;-146.19;100.00;65364.44;10367239;28;20042;-65
2022/10/13 17:10:23;;;;;;;5.50;2.88;;;;;;;-146.19;100.00;65364.44;10391820;28;20413;-63
2022/10/13 17:15:52;;;;;;;3.45;2.85;;;;;;;-146.19;100.00;65364.44;10377559;28;20138;-61
2022/10/13 17:21:14;;;;;;;3.42;2.70;;;;;;;-146.19;100.00;65364.44;10387956;28;20508;-60
2022/10/13 17:26:34;;;;;;;3.42;2.60;;;;;;;-146.19;100.00;65364.44;10386020;28;20038;-60
2022/10/13 17:31:53;;;;;;;4.60;2.42;;;;;;;-146.19;100.00;65364.44;10390667;28;20038;-57
2022/10/13 17:37:14;;;;;;;4.03;2.72;;;;;;;-146.19;100.00;65364.44;10390429;28;20042;-57
2022/10/13 17:42:34;;;;;;;3.10;2.67;;;;;;;-146.19;100.00;65364.44;10391508;28;20054;-56
2022/10/13 17:47:54;;;;;;;5.07;3.00;;;;;;;-146.19;100.00;65364.44;10379981;28;20057;-58
2022/10/13 17:53:14;;;;;;;6.32;4.07;;;;;;;-146.19;100.00;65364.44;10389185;28;20068;-60
2022/10/13 17:58:37;;;;;;;5.15;3.80;;;;;;;-146.19;100.00;65364.44;10382203;28;20050;-63
2022/10/13 18:04:00;;;;;;;6.30;3.40;;;;;;;-146.19;100.00;65364.44;10389992;28;20045;-62
2022/10/13 18:09:22;;;;;;;4.32;3.45;;;;;;;-146.19;100.00;65364.44;10389633;28;20056;-61
2022/10/13 18:14:41;;;;;;;6.03;3.67;;;;;;;-146.19;100.00;65364.44;10367839;28;20096;-62
2022/10/13 18:20:01;;;;;;;6.07;3.95;;;;;;;-146.19;100.00;65364.44;10349640;28;20053;-62
2022/10/13 18:25:21;;;;;;;7.18;3.95;;;;;;;-146.19;100.00;65364.44;10364718;28;20049;-61
2022/10/13 18:30:41;;;;;;;5.05;4.28;;;;;;;-146.19;100.00;65364.44;10385514;28;20058;-62
2022/10/13 18:36:00;;;;;;;6.07;3.92;;;;;;;-146.19;100.00;65364.44;10365034;28;20039;-58
2022/10/13 18:41:22;;;;;;;5.13;4.45;;;;;;;-146.19;100.00;65364.44;10361145;28;20046;-59
2022/10/13 18:46:41;;;;;;;5.32;4.15;;;;;;;-146.19;100.00;65364.44;10354213;28;20069;-60
2022/10/13 18:52:01;;;;;;;8.02;4.32;;;;;;;-146.19;100.00;65364.44;10346552;28;20100;-62
2022/10/13 18:57:21;;;;;;;8.55;4.68;;;;;;;-146.19;100.00;65364.44;10397644;28;20048;-58
2022/10/13 19:02:40;;;;;;;6.47;4.57;;;;;;;-146.19;100.00;65364.44;10378457;28;20453;-54
2022/10/13 19:08:00;;;;;;;6.88;4.90;;;;;;;-146.19;100.00;65364.44;10387293;28;20078;-53
2022/10/13 19:13:20;;;;;;;6.57;4.78;;;;;;;-146.19;100.00;65364.44;10389619;28;20386;-56
2022/10/13 19:18:40;;;;;;;6.38;4.75;;;;;;;-146.19;100.00;65364.44;10382971;28;20498;-54
2022/10/13 19:24:00;;;;;;;6.25;5.07;;;;;;;-146.19;100.00;65364.44;10386676;28;20041;-55
2022/10/13 19:29:19;;;;;;;6.35;4.50;;;;;;;-146.19;100.00;65364.44;10392073;28;20061;-55
2022/10/13 19:34:38;;;;;;;6.15;4.78;;;;;;;-146.19;100.00;65364.44;10386494;28;20046;-59
2022/10/13 19:39:58;;;;;;;7.43;4.68;;;;;;;-146.19;100.00;65364.44;10373480;28;20053;-61
2022/10/13 19:45:20;;;;;;;9.82;4.40;;;;;;;-146.19;100.00;65364.44;10383887;28;20406;-63
2022/10/13 19:50:41;;;;;;;6.90;4.10;;;;;;;-146.19;100.00;65364.44;10386039;28;20056;-59
2022/10/13 19:56:06;;;;;;;8.27;4.82;;;;;;;-146.19;100.00;65364.44;10384226;28;20067;-61
2022/10/13 20:01:26;;;;;;;6.85;4.45;;;;;;;-146.19;100.00;65364.44;10368659;28;20056;-62
2022/10/13 20:06:47;;;;;;;11.98;4.68;;;;;;;-146.19;100.00;65364.44;10379609;28;20042;-65
2022/10/13 20:12:07;;;;;;;7.22;4.57;;;;;;;-146.19;100.00;65364.44;10380276;28;20054;-61
2022/10/13 20:17:32;;;;;;;5.25;4.53;;;;;;;-146.19;100.00;65364.44;10373920;28;20045;-57
2022/10/13 20:22:51;;;;;;;5.20;4.35;;;;;;;-146.19;100.00;65364.44;10385201;28;20405;-58
2022/10/13 20:28:11;;;;;;;6.03;4.53;;;;;;;-146.19;100.00;65364.44;10363358;28;20053;-62
2022/10/13 20:33:31;;;;;;;6.60;4.07;;;;;;;-146.19;100.00;65364.44;10385095;28;20050;-61
2022/10/13 20:38:50;;;;;;;5.80;4.13;;;;;;;-146.19;100.00;65364.44;10386015;28;20052;-61
2022/10/13 20:44:10;;;;;;;5.22;4.18;;;;;;;-146.19;100.00;65364.44;10393311;28;20501;-61
2022/10/13 20:49:29;;;;;;;5.60;4.57;;;;;;;-146.19;100.00;65364.44;10384732;28;20081;-61
2022/10/13 20:54:48;;;;;;;5.65;4.40;;;;;;;-146.19;100.00;65364.44;10388789;28;20044;-59
2022/10/13 21:00:09;;;;;;;5.38;4.18;;;;;;;-146.19;100.00;65364.44;10350567;28;20065;-60
2022/10/13 21:05:28;;;;;;;8.10;4.32;;;;;;;-146.19;100.00;65364.44;10337837;28;20050;-61
2022/10/13 21:10:49;;;;;;;4.93;3.97;;;;;;;-146.19;100.00;65364.44;10341677;28;20042;-59
2022/10/13 21:16:13;;;;;;;4.90;4.25;;;;;;;-146.19;100.00;65364.44;10347260;28;20054;-63
2022/10/13 21:21:34;;;;;;;5.57;3.95;;;;;;;-146.19;100.00;65364.44;10347004;28;20498;-63
2022/10/13 21:26:54;;;;;;;5.90;4.45;;;;;;;-146.19;100.00;65364.44;10362694;28;20066;-63
2022/10/13 21:32:13;;;;;;;4.72;3.85;;;;;;;-146.19;100.00;65364.44;10358665;28;20038;-62
2022/10/13 21:37:36;;;;;;;5.15;4.40;;;;;;;-146.19;100.00;65364.44;10355254;28;20046;-62
2022/10/13 21:42:56;;;;;;;5.88;4.30;;;;;;;-146.19;100.00;65364.44;10380443;28;20045;-62
2022/10/13 21:48:15;;;;;;;12.93;4.63;;;;;;;-146.19;100.00;65364.44;10390633;28;20046;-62
2022/10/13 21:53:34;;;;;;;4.35;3.95;;;;;;;-146.19;100.00;65364.44;10395606;28;20519;-64
2022/10/13 21:58:54;;;;;;;5.70;4.05;;;;;;;-146.19;100.00;65364.44;10382253;28;20523;-63
2022/10/13 22:04:14;;;;;;;5.93;3.95;;;;;;;-146.19;100.00;65364.44;10384219;28;20053;-63
2022/10/13 22:09:34;;;;;;;4.60;3.90;;;;;;;-146.19;100.00;65364.44;10382126;28;20049;-64
2022/10/13 22:14:53;;;;;;;4.47;3.90;;;;;;;-146.19;100.00;65364.44;10389604;28;20042;-63
2022/10/13 22:20:12;;;;;;;4.15;3.75;;;;;;;-146.19;100.00;65364.44;10389472;28;20041;-63
2022/10/13 22:25:32;;;;;;;4.25;3.85;;;;;;;-146.19;100.00;65364.44;10389161;28;20493;-63
2022/10/13 22:30:52;;;;;;;5.25;4.05;;;;;;;-146.19;100.00;65364.44;10388841;28;20038;-62
2022/10/13 22:36:17;;;;;;;4.25;3.65;;;;;;;-146.19;100.00;65364.44;10375990;28;20480;-63
2022/10/13 22:41:36;;;;;;;5.03;3.88;;;;;;;-146.19;100.00;65364.44;10370293;28;20574;-63
2022/10/13 22:46:56;;;;;;;4.07;3.63;;;;;;;-146.19;100.00;65364.44;10375019;28;20101;-63
2022/10/13 22:52:15;;;;;;;5.82;4.00;;;;;;;-146.19;100.00;65364.44;10378352;28;20037;-63
2022/10/13 22:57:35;;;;;;;4.03;3.40;;;;;;;-146.19;100.00;65364.44;10387043;28;20125;-63
2022/10/13 23:02:55;;;;;;;5.95;4.03;;;;;;;-146.19;100.00;65364.44;10363201;28;20121;-62
2022/10/13 23:08:15;;;;;;;4.35;3.58;;;;;;;-146.19;100.00;65364.44;10391939;28;20045;-62
2022/10/13 23:13:34;;;;;;;4.30;3.65;;;;;;;-146.19;100.00;65364.44;10387334;28;20049;-63
2022/10/13 23:18:55;;;;;;;5.07;4.10;;;;;;;-146.19;100.00;65364.44;10374242;28;20127;-64
2022/10/13 23:24:19;;;;;;;6.00;3.95;;;;;;;-146.19;100.00;65364.44;10389153;28;20057;-63
2022/10/13 23:29:38;;;;;;;4.43;4.03;;;;;;;-146.19;100.00;65364.44;10386588;28;20042;-63
2022/10/13 23:34:57;;;;;;;4.13;3.72;;;;;;;-146.19;100.00;65364.44;10394132;28;20044;-63
2022/10/13 23:40:21;;;;;;;4.15;3.75;;;;;;;-146.19;100.00;65364.44;10374527;28;20042;-63
2022/10/13 23:45:41;;;;;;;4.10;3.70;;;;;;;-146.19;100.00;65364.44;10373302;28;20068;-63
2022/10/13 23:51:21;;;;;;;4.90;3.60;;;;;;;-146.19;100.00;65364.44;10377268;28;20080;-63
2022/10/13 23:56:41;;;;;;;4.55;3.80;;;;;;;-146.19;100.00;65364.44;10386219;28;20068;-63
